sensor_id;sensor_type;location;lat;lon;timestamp;pressure;altitude;pressure_sealevel;temperature;humidity
27429;BME280;14881;48.092;11.574;2023-06-14T00:01:39;94982.94;;;8.35;100.00
27429;BME280;14881;48.092;11.574;2023-06-14T00:04:06;94983.00;;;8.30;100.00
27429;BME280;14881;48.092;11.574;2023-06-14T00:06:34;94989.03;;;8.22;100.00
27429;BME280;14881;48.092;11.574;2023-06-14T00:09:00;94990.97;;;8.17;100.00
27429;BME280;14881;48.092;11.574;2023-06-14T00:11:27;94982.94;;;8.12;100.00
27429;BME280;14881;48.092;11.574;2023-06-14T00:13:53;94990.00;;;8.08;100.00
27429;BME280;14881;48.092;11.574;2023-06-14T00:16:20;94992.47;;;8.04;100.00
27429;BME280;14881;48.092;11.574;2023-06-14T00:18:46;94978.69;;;8.00;100.00
27429;BME280;14881;48.092;11.574;2023-06-14T00:21:14;94985.19;;;7.99;100.00
27429;BME280;14881;48.092;11.574;2023-06-14T00:23:40;94979.84;;;7.94;100.00
27429;BME280;14881;48.092;11.574;2023-06-14T00:26:07;94979.34;;;7.92;100.00
27429;BME280;14881;48.092;11.574;2023-06-14T00:28:33;94979.66;;;7.86;100.00
27429;BME280;14881;48.092;11.574;2023-06-14T00:31:00;94977.81;;;7.81;100.00
27429;BME280;14881;48.092;11.574;2023-06-14T00:33:26;94978.97;;;7.75;100.00
27429;BME280;14881;48.092;11.574;2023-06-14T00:35:52;94976.56;;;7.68;100.00
27429;BME280;14881;48.092;11.574;2023-06-14T00:38:20;94990.66;;;7.65;100.00
27429;BME280;14881;48.092;11.574;2023-06-14T00:40:46;94985.00;;;7.62;100.00
27429;BME280;14881;48.092;11.574;2023-06-14T00:43:13;94982.88;;;7.59;100.00
27429;BME280;14881;48.092;11.574;2023-06-14T00:45:39;94979.69;;;7.52;100.00
27429;BME280;14881;48.092;11.574;2023-06-14T00:48:06;94984.56;;;7.50;100.00
27429;BME280;14881;48.092;11.574;2023-06-14T00:50:33;94981.34;;;7.48;100.00
27429;BME280;14881;48.092;11.574;2023-06-14T00:53:00;94985.72;;;7.44;100.00
27429;BME280;14881;48.092;11.574;2023-06-14T00:55:28;94982.44;;;7.47;100.00
27429;BME280;14881;48.092;11.574;2023-06-14T00:57:54;94978.13;;;7.46;100.00
27429;BME280;14881;48.092;11.574;2023-06-14T01:00:21;94981.97;;;7.40;100.00
27429;BME280;14881;48.092;11.574;2023-06-14T01:02:48;94977.69;;;7.33;100.00
27429;BME280;14881;48.092;11.574;2023-06-14T01:05:16;94992.03;;;7.29;100.00
27429;BME280;14881;48.092;11.574;2023-06-14T01:07:49;94984.25;;;7.22;100.00
27429;BME280;14881;48.092;11.574;2023-06-14T01:10:31;94984.28;;;7.17;100.00
27429;BME280;14881;48.092;11.574;2023-06-14T01:13:06;94989.44;;;7.14;100.00
27429;BME280;14881;48.092;11.574;2023-06-14T01:15:34;94986.78;;;7.09;100.00
27429;BME280;14881;48.092;11.574;2023-06-14T01:18:01;94981.66;;;7.07;100.00
27429;BME280;14881;48.092;11.574;2023-06-14T01:20:29;94986.00;;;7.03;100.00
27429;BME280;14881;48.092;11.574;2023-06-14T01:22:57;94981.16;;;7.00;100.00
27429;BME280;14881;48.092;11.574;2023-06-14T01:25:24;94977.13;;;6.97;100.00
27429;BME280;14881;48.092;11.574;2023-06-14T01:27:52;94976.59;;;6.95;100.00
27429;BME280;14881;48.092;11.574;2023-06-14T01:30:20;94984.97;;;6.94;100.00
27429;BME280;14881;48.092;11.574;2023-06-14T01:32:48;94977.72;;;6.89;100.00
27429;BME280;14881;48.092;11.574;2023-06-14T01:35:16;94983.97;;;6.85;100.00
27429;BME280;14881;48.092;11.574;2023-06-14T01:37:43;94976.41;;;6.82;100.00
27429;BME280;14881;48.092;11.574;2023-06-14T01:40:11;94979.91;;;6.82;100.00
27429;BME280;14881;48.092;11.574;2023-06-14T01:42:39;94977.22;;;6.82;100.00
27429;BME280;14881;48.092;11.574;2023-06-14T01:45:47;94975.88;;;6.80;100.00
27429;BME280;14881;48.092;11.574;2023-06-14T01:48:00;94972.09;;;6.81;100.00
27429;BME280;14881;48.092;11.574;2023-06-14T01:50:28;94974.25;;;6.79;100.00
27429;BME280;14881;48.092;11.574;2023-06-14T01:52:55;94973.50;;;6.73;100.00
27429;BME280;14881;48.092;11.574;2023-06-14T01:55:22;94971.63;;;6.69;100.00
27429;BME280;14881;48.092;11.574;2023-06-14T01:57:50;94980.28;;;6.66;100.00
27429;BME280;14881;48.092;11.574;2023-06-14T02:00:17;94970.59;;;6.59;100.00
27429;BME280;14881;48.092;11.574;2023-06-14T02:02:44;94978.44;;;6.56;100.00
27429;BME280;14881;48.092;11.574;2023-06-14T02:05:11;94969.81;;;6.54;100.00
27429;BME280;14881;48.092;11.574;2023-06-14T02:07:38;94969.81;;;6.54;100.00
27429;BME280;14881;48.092;11.574;2023-06-14T02:10:05;94974.97;;;6.50;100.00
27429;BME280;14881;48.092;11.574;2023-06-14T02:12:32;94975.78;;;6.46;100.00
27429;BME280;14881;48.092;11.574;2023-06-14T02:14:59;94977.94;;;6.44;100.00
27429;BME280;14881;48.092;11.574;2023-06-14T02:17:25;94979.31;;;6.41;100.00
27429;BME280;14881;48.092;11.574;2023-06-14T02:19:52;94978.53;;;6.36;100.00
27429;BME280;14881;48.092;11.574;2023-06-14T02:22:18;94972.88;;;6.32;100.00
27429;BME280;14881;48.092;11.574;2023-06-14T02:24:46;94970.19;;;6.32;100.00
27429;BME280;14881;48.092;11.574;2023-06-14T02:27:13;94975.31;;;6.28;100.00
27429;BME280;14881;48.092;11.574;2023-06-14T02:29:43;94977.72;;;6.30;100.00
27429;BME280;14881;48.092;11.574;2023-06-14T02:32:09;94970.47;;;6.25;100.00
27429;BME280;14881;48.092;11.574;2023-06-14T02:34:36;94965.09;;;6.20;100.00
27429;BME280;14881;48.092;11.574;2023-06-14T02:37:02;94970.50;;;6.15;100.00
27429;BME280;14881;48.092;11.574;2023-06-14T02:39:29;94971.06;;;6.12;100.00
27429;BME280;14881;48.092;11.574;2023-06-14T02:41:55;94971.31;;;6.11;100.00
27429;BME280;14881;48.092;11.574;2023-06-14T02:44:24;94968.66;;;6.06;100.00
27429;BME280;14881;48.092;11.574;2023-06-14T02:46:52;94975.41;;;6.03;100.00
27429;BME280;14881;48.092;11.574;2023-06-14T02:49:19;94974.34;;;5.99;100.00
27429;BME280;14881;48.092;11.574;2023-06-14T02:51:45;94974.88;;;5.96;100.00
27429;BME280;14881;48.092;11.574;2023-06-14T02:54:11;94974.06;;;5.90;100.00
27429;BME280;14881;48.092;11.574;2023-06-14T02:56:38;94971.66;;;5.84;100.00
27429;BME280;14881;48.092;11.574;2023-06-14T02:59:04;94971.91;;;5.82;100.00
27429;BME280;14881;48.092;11.574;2023-06-14T03:01:30;94977.84;;;5.79;100.00
27429;BME280;14881;48.092;11.574;2023-06-14T03:04:00;94982.16;;;5.75;100.00
27429;BME280;14881;48.092;11.574;2023-06-14T03:06:27;94984.88;;;5.70;100.00
27429;BME280;14881;48.092;11.574;2023-06-14T03:08:55;94983.81;;;5.66;100.00
27429;BME280;14881;48.092;11.574;2023-06-14T03:11:25;94983.81;;;5.66;100.00
27429;BME280;14881;48.092;11.574;2023-06-14T03:13:52;94987.59;;;5.70;100.00
27429;BME280;14881;48.092;11.574;2023-06-14T03:16:18;94992.41;;;5.73;100.00
27429;BME280;14881;48.092;11.574;2023-06-14T03:18:48;94995.38;;;5.72;100.00
27429;BME280;14881;48.092;11.574;2023-06-14T03:21:15;95005.09;;;5.68;100.00
27429;BME280;14881;48.092;11.574;2023-06-14T03:23:42;94999.69;;;5.63;100.00
27429;BME280;14881;48.092;11.574;2023-06-14T03:26:08;95008.06;;;5.61;100.00
27429;BME280;14881;48.092;11.574;2023-06-14T03:28:34;95010.75;;;5.66;100.00
27429;BME280;14881;48.092;11.574;2023-06-14T03:31:01;95010.22;;;5.64;100.00
27429;BME280;14881;48.092;11.574;2023-06-14T03:33:27;95010.47;;;5.63;100.00
27429;BME280;14881;48.092;11.574;2023-06-14T03:35:54;95018.56;;;5.63;100.00
27429;BME280;14881;48.092;11.574;2023-06-14T03:38:22;95010.75;;;5.61;100.00
27429;BME280;14881;48.092;11.574;2023-06-14T03:40:49;95011.00;;;5.59;100.00
27429;BME280;14881;48.092;11.574;2023-06-14T03:43:15;95011.81;;;5.60;100.00
27429;BME280;14881;48.092;11.574;2023-06-14T03:45:41;95006.44;;;5.60;100.00
27429;BME280;14881;48.092;11.574;2023-06-14T03:48:08;95001.59;;;5.62;100.00
27429;BME280;14881;48.092;11.574;2023-06-14T03:50:35;95013.19;;;5.63;100.00
27429;BME280;14881;48.092;11.574;2023-06-14T03:53:03;95021.25;;;5.68;100.00
27429;BME280;14881;48.092;11.574;2023-06-14T03:55:30;95010.47;;;5.73;100.00
27429;BME280;14881;48.092;11.574;2023-06-14T03:58:00;95015.31;;;5.81;100.00
27429;BME280;14881;48.092;11.574;2023-06-14T04:00:27;95019.63;;;5.87;100.00
27429;BME280;14881;48.092;11.574;2023-06-14T04:02:56;95026.38;;;5.84;100.00
27429;BME280;14881;48.092;11.574;2023-06-14T04:05:22;95037.69;;;5.86;100.00
27429;BME280;14881;48.092;11.574;2023-06-14T04:07:52;95034.47;;;5.89;100.00
27429;BME280;14881;48.092;11.574;2023-06-14T04:10:21;95036.63;;;5.98;100.00
27429;BME280;14881;48.092;11.574;2023-06-14T04:12:48;95039.03;;;6.04;100.00
27429;BME280;14881;48.092;11.574;2023-06-14T04:15:14;95048.44;;;6.12;100.00
27429;BME280;14881;48.092;11.574;2023-06-14T04:17:47;95047.63;;;6.16;100.00
27429;BME280;14881;48.092;11.574;2023-06-14T04:20:14;95051.94;;;6.17;100.00
27429;BME280;14881;48.092;11.574;2023-06-14T04:22:40;95060.84;;;6.18;100.00
27429;BME280;14881;48.092;11.574;2023-06-14T04:25:07;95059.47;;;6.25;100.00
27429;BME280;14881;48.092;11.574;2023-06-14T04:27:34;95055.69;;;6.37;100.00
27429;BME280;14881;48.092;11.574;2023-06-14T04:30:03;95061.56;;;6.49;100.00
27429;BME280;14881;48.092;11.574;2023-06-14T04:32:29;95057.75;;;6.60;100.00
27429;BME280;14881;48.092;11.574;2023-06-14T04:35:06;95062.06;;;6.66;100.00
27429;BME280;14881;48.092;11.574;2023-06-14T04:37:32;95059.34;;;6.66;100.00
27429;BME280;14881;48.092;11.574;2023-06-14T04:39:59;95055.31;;;6.69;100.00
27429;BME280;14881;48.092;11.574;2023-06-14T04:42:25;95067.13;;;6.78;100.00
27429;BME280;14881;48.092;11.574;2023-06-14T04:44:57;95057.88;;;6.94;100.00
27429;BME280;14881;48.092;11.574;2023-06-14T04:47:24;95057.81;;;7.09;100.00
27429;BME280;14881;48.092;11.574;2023-06-14T04:49:56;95059.56;;;7.29;100.00
27429;BME280;14881;48.092;11.574;2023-06-14T04:52:23;95059.53;;;7.39;100.00
27429;BME280;14881;48.092;11.574;2023-06-14T04:54:52;95067.88;;;7.43;100.00
27429;BME280;14881;48.092;11.574;2023-06-14T04:57:19;95072.69;;;7.51;100.00
27429;BME280;14881;48.092;11.574;2023-06-14T04:59:47;95067.41;;;7.69;100.00
27429;BME280;14881;48.092;11.574;2023-06-14T05:02:14;95070.50;;;7.87;100.00
27429;BME280;14881;48.092;11.574;2023-06-14T05:04:41;95070.38;;;8.02;100.00
27429;BME280;14881;48.092;11.574;2023-06-14T05:07:07;95064.56;;;8.19;100.00
27429;BME280;14881;48.092;11.574;2023-06-14T05:09:34;95066.59;;;8.32;100.00
27429;BME280;14881;48.092;11.574;2023-06-14T05:12:01;95067.84;;;8.45;100.00
27429;BME280;14881;48.092;11.574;2023-06-14T05:14:28;95069.06;;;8.57;100.00
27429;BME280;14881;48.092;11.574;2023-06-14T05:16:54;95069.97;;;8.71;100.00
27429;BME280;14881;48.092;11.574;2023-06-14T05:19:21;95070.97;;;8.81;100.00
27429;BME280;14881;48.092;11.574;2023-06-14T05:21:48;95071.03;;;8.99;100.00
27429;BME280;14881;48.092;11.574;2023-06-14T05:24:14;95071.09;;;9.13;100.00
27429;BME280;14881;48.092;11.574;2023-06-14T05:26:40;95065.03;;;9.21;100.00
27429;BME280;14881;48.092;11.574;2023-06-14T05:29:07;95072.94;;;9.36;100.00
27429;BME280;14881;48.092;11.574;2023-06-14T05:31:33;95067.81;;;9.54;100.00
27429;BME280;14881;48.092;11.574;2023-06-14T05:34:00;95064.81;;;9.74;100.00
27429;BME280;14881;48.092;11.574;2023-06-14T05:36:26;95058.81;;;10.09;100.00
27429;BME280;14881;48.092;11.574;2023-06-14T05:38:54;95054.69;;;10.44;100.00
27429;BME280;14881;48.092;11.574;2023-06-14T05:41:25;95061.25;;;10.85;100.00
27429;BME280;14881;48.092;11.574;2023-06-14T05:43:52;95053.50;;;11.05;100.00
27429;BME280;14881;48.092;11.574;2023-06-14T05:46:18;95055.47;;;11.27;100.00
27429;BME280;14881;48.092;11.574;2023-06-14T05:48:48;95052.91;;;11.44;100.00
27429;BME280;14881;48.092;11.574;2023-06-14T05:51:14;95042.03;;;11.58;100.00
27429;BME280;14881;48.092;11.574;2023-06-14T05:53:44;95049.53;;;11.75;100.00
27429;BME280;14881;48.092;11.574;2023-06-14T05:56:12;95061.56;;;11.96;100.00
27429;BME280;14881;48.092;11.574;2023-06-14T05:58:38;95056.06;;;12.10;100.00
27429;BME280;14881;48.092;11.574;2023-06-14T06:01:04;95048.63;;;12.24;100.00
27429;BME280;14881;48.092;11.574;2023-06-14T06:03:31;95055.16;;;12.45;100.00
27429;BME280;14881;48.092;11.574;2023-06-14T06:05:58;95047.22;;;12.66;100.00
27429;BME280;14881;48.092;11.574;2023-06-14T06:08:25;95052.91;;;12.78;100.00
27429;BME280;14881;48.092;11.574;2023-06-14T06:10:52;95054.91;;;12.95;100.00
27429;BME280;14881;48.092;11.574;2023-06-14T06:13:19;95063.78;;;13.09;100.00
27429;BME280;14881;48.092;11.574;2023-06-14T06:15:46;95065.47;;;13.28;100.00
27429;BME280;14881;48.092;11.574;2023-06-14T06:18:12;95068.06;;;13.41;100.00
27429;BME280;14881;48.092;11.574;2023-06-14T06:20:38;95069.69;;;13.59;100.00
27429;BME280;14881;48.092;11.574;2023-06-14T06:23:05;95062.16;;;13.74;100.00
27429;BME280;14881;48.092;11.574;2023-06-14T06:25:31;95066.31;;;13.88;100.00
27429;BME280;14881;48.092;11.574;2023-06-14T06:27:58;95066.50;;;13.92;100.00
27429;BME280;14881;48.092;11.574;2023-06-14T06:30:25;95070.50;;;13.94;100.00
27429;BME280;14881;48.092;11.574;2023-06-14T06:32:51;95060.06;;;14.14;100.00
27429;BME280;14881;48.092;11.574;2023-06-14T06:35:18;95070.00;;;14.36;100.00
27429;BME280;14881;48.092;11.574;2023-06-14T06:37:45;95069.53;;;14.42;100.00
27429;BME280;14881;48.092;11.574;2023-06-14T06:40:12;95069.69;;;14.46;100.00
27429;BME280;14881;48.092;11.574;2023-06-14T06:42:38;95071.25;;;14.55;100.00
27429;BME280;14881;48.092;11.574;2023-06-14T06:45:05;95070.47;;;14.63;100.00
27429;BME280;14881;48.092;11.574;2023-06-14T06:47:32;95066.06;;;14.80;100.00
27429;BME280;14881;48.092;11.574;2023-06-14T06:49:59;95074.63;;;15.08;100.00
27429;BME280;14881;48.092;11.574;2023-06-14T06:52:25;95076.13;;;15.05;100.00
27429;BME280;14881;48.092;11.574;2023-06-14T06:54:51;95075.75;;;15.07;100.00
27429;BME280;14881;48.092;11.574;2023-06-14T06:57:20;95078.81;;;15.14;100.00
27429;BME280;14881;48.092;11.574;2023-06-14T06:59:48;95075.91;;;15.19;100.00
27429;BME280;14881;48.092;11.574;2023-06-14T07:02:14;95073.91;;;15.28;100.00
27429;BME280;14881;48.092;11.574;2023-06-14T07:04:42;95067.59;;;15.36;100.00
27429;BME280;14881;48.092;11.574;2023-06-14T07:07:08;95073.47;;;15.47;100.00
27429;BME280;14881;48.092;11.574;2023-06-14T07:09:35;95080.38;;;15.53;100.00
27429;BME280;14881;48.092;11.574;2023-06-14T07:12:04;95076.44;;;15.71;100.00
27429;BME280;14881;48.092;11.574;2023-06-14T07:14:30;95076.50;;;15.83;100.00
27429;BME280;14881;48.092;11.574;2023-06-14T07:16:57;95078.06;;;15.93;100.00
27429;BME280;14881;48.092;11.574;2023-06-14T07:19:23;95080.38;;;16.03;100.00
27429;BME280;14881;48.092;11.574;2023-06-14T07:21:50;95084.72;;;16.25;100.00
27429;BME280;14881;48.092;11.574;2023-06-14T07:24:17;95083.03;;;16.32;100.00
27429;BME280;14881;48.092;11.574;2023-06-14T07:26:43;95080.84;;;16.59;100.00
27429;BME280;14881;48.092;11.574;2023-06-14T07:29:10;95090.09;;;16.75;100.00
27429;BME280;14881;48.092;11.574;2023-06-14T07:31:36;95090.44;;;16.86;100.00
27429;BME280;14881;48.092;11.574;2023-06-14T07:34:03;95091.72;;;17.00;100.00
27429;BME280;14881;48.092;11.574;2023-06-14T07:36:29;95089.03;;;17.13;100.00
27429;BME280;14881;48.092;11.574;2023-06-14T07:38:56;95086.50;;;17.20;100.00
27429;BME280;14881;48.092;11.574;2023-06-14T07:41:23;95096.25;;;17.42;100.00
27429;BME280;14881;48.092;11.574;2023-06-14T07:43:49;95094.06;;;17.47;100.00
27429;BME280;14881;48.092;11.574;2023-06-14T07:46:16;95098.66;;;17.67;100.00
27429;BME280;14881;48.092;11.574;2023-06-14T07:48:43;95093.16;;;17.80;100.00
27429;BME280;14881;48.092;11.574;2023-06-14T07:51:09;95095.16;;;18.07;100.00
27429;BME280;14881;48.092;11.574;2023-06-14T07:53:36;95090.53;;;18.23;100.00
27429;BME280;14881;48.092;11.574;2023-06-14T07:56:03;95101.47;;;18.48;93.26
27429;BME280;14881;48.092;11.574;2023-06-14T07:58:31;95093.34;;;18.51;97.15
27429;BME280;14881;48.092;11.574;2023-06-14T08:00:58;95095.72;;;18.53;96.09
27429;BME280;14881;48.092;11.574;2023-06-14T08:03:25;95083.19;;;18.67;95.50
27429;BME280;14881;48.092;11.574;2023-06-14T08:05:52;95083.81;;;18.76;96.89
27429;BME280;14881;48.092;11.574;2023-06-14T08:08:19;95086.72;;;18.96;95.90
27429;BME280;14881;48.092;11.574;2023-06-14T08:10:45;95085.66;;;19.16;89.12
27429;BME280;14881;48.092;11.574;2023-06-14T08:13:12;95085.94;;;19.27;90.00
27429;BME280;14881;48.092;11.574;2023-06-14T08:15:39;95087.44;;;19.40;85.55
27429;BME280;14881;48.092;11.574;2023-06-14T08:18:05;95080.69;;;19.37;79.53
27429;BME280;14881;48.092;11.574;2023-06-14T08:20:32;95083.00;;;19.67;75.78
27429;BME280;14881;48.092;11.574;2023-06-14T08:22:58;95082.72;;;19.88;77.39
27429;BME280;14881;48.092;11.574;2023-06-14T08:25:27;95098.16;;;20.08;78.42
27429;BME280;14881;48.092;11.574;2023-06-14T08:27:58;95098.41;;;20.03;70.10
27429;BME280;14881;48.092;11.574;2023-06-14T08:30:26;95098.47;;;20.22;73.38
27429;BME280;14881;48.092;11.574;2023-06-14T08:32:58;95089.88;;;20.27;71.02
27429;BME280;14881;48.092;11.574;2023-06-14T08:35:42;95098.66;;;20.48;70.34
27429;BME280;14881;48.092;11.574;2023-06-14T08:38:10;95101.47;;;20.71;65.91
27429;BME280;14881;48.092;11.574;2023-06-14T08:40:37;95101.69;;;20.82;67.59
27429;BME280;14881;48.092;11.574;2023-06-14T08:43:04;95100.38;;;20.95;62.64
27429;BME280;14881;48.092;11.574;2023-06-14T08:45:34;95094.69;;;21.07;55.58
27429;BME280;14881;48.092;11.574;2023-06-14T08:48:01;95101.06;;;21.11;61.03
27429;BME280;14881;48.092;11.574;2023-06-14T08:50:28;95100.38;;;21.18;60.23
27429;BME280;14881;48.092;11.574;2023-06-14T08:52:59;95095.41;;;21.46;56.12
27429;BME280;14881;48.092;11.574;2023-06-14T08:55:29;95094.94;;;21.67;63.19
27429;BME280;14881;48.092;11.574;2023-06-14T08:57:59;95095.59;;;21.83;58.80
27429;BME280;14881;48.092;11.574;2023-06-14T09:00:27;95092.94;;;21.64;54.31
27429;BME280;14881;48.092;11.574;2023-06-14T09:02:55;95101.34;;;21.71;56.46
27429;BME280;14881;48.092;11.574;2023-06-14T09:05:23;95096.75;;;22.05;53.60
27429;BME280;14881;48.092;11.574;2023-06-14T09:07:50;95092.63;;;22.22;55.16
27429;BME280;14881;48.092;11.574;2023-06-14T09:10:17;95099.94;;;22.34;56.20
27429;BME280;14881;48.092;11.574;2023-06-14T09:12:43;95093.84;;;22.51;49.56
27429;BME280;14881;48.092;11.574;2023-06-14T09:15:10;95096.69;;;22.58;49.20
27429;BME280;14881;48.092;11.574;2023-06-14T09:17:37;95101.09;;;22.63;54.22
27429;BME280;14881;48.092;11.574;2023-06-14T09:20:06;95096.97;;;22.79;51.16
27429;BME280;14881;48.092;11.574;2023-06-14T09:22:35;95108.19;;;22.90;53.80
27429;BME280;14881;48.092;11.574;2023-06-14T09:25:02;95095.50;;;22.89;54.12
27429;BME280;14881;48.092;11.574;2023-06-14T09:27:29;95096.44;;;23.04;50.51
27429;BME280;14881;48.092;11.574;2023-06-14T09:29:55;95101.78;;;22.86;52.29
27429;BME280;14881;48.092;11.574;2023-06-14T09:32:22;95090.19;;;23.10;52.64
27429;BME280;14881;48.092;11.574;2023-06-14T09:34:49;95095.63;;;23.40;55.01
27429;BME280;14881;48.092;11.574;2023-06-14T09:37:28;95103.56;;;23.42;49.98
27429;BME280;14881;48.092;11.574;2023-06-14T09:39:55;95115.63;;;22.82;50.10
27429;BME280;14881;48.092;11.574;2023-06-14T09:42:23;95114.06;;;22.55;47.47
27429;BME280;14881;48.092;11.574;2023-06-14T09:44:53;95116.00;;;22.81;47.62
27429;BME280;14881;48.092;11.574;2023-06-14T09:47:19;95103.78;;;23.19;49.82
27429;BME280;14881;48.092;11.574;2023-06-14T09:49:46;95097.25;;;23.85;50.28
27429;BME280;14881;48.092;11.574;2023-06-14T09:52:15;95101.00;;;24.11;49.88
27429;BME280;14881;48.092;11.574;2023-06-14T09:54:44;95104.81;;;24.47;49.59
27429;BME280;14881;48.092;11.574;2023-06-14T09:57:13;95108.28;;;24.26;48.06
27429;BME280;14881;48.092;11.574;2023-06-14T09:59:47;95110.22;;;23.71;51.90
27429;BME280;14881;48.092;11.574;2023-06-14T10:08:59;95117.75;;;22.36;51.72
27429;BME280;14881;48.092;11.574;2023-06-14T10:11:27;95103.72;;;21.96;51.37
27429;BME280;14881;48.092;11.574;2023-06-14T10:13:54;95099.81;;;22.00;57.27
27429;BME280;14881;48.092;11.574;2023-06-14T10:16:26;95106.63;;;21.80;54.37
27429;BME280;14881;48.092;11.574;2023-06-14T10:19:04;95108.19;;;22.04;59.45
27429;BME280;14881;48.092;11.574;2023-06-14T10:21:41;95109.09;;;22.11;57.30
27429;BME280;14881;48.092;11.574;2023-06-14T10:24:13;95108.94;;;22.27;58.91
27429;BME280;14881;48.092;11.574;2023-06-14T10:26:51;95104.16;;;22.84;53.40
27429;BME280;14881;48.092;11.574;2023-06-14T10:29:17;95094.63;;;23.15;54.51
27429;BME280;14881;48.092;11.574;2023-06-14T10:31:45;95109.06;;;22.98;53.05
27429;BME280;14881;48.092;11.574;2023-06-14T10:34:12;95103.94;;;22.66;55.76
27429;BME280;14881;48.092;11.574;2023-06-14T10:37:00;95101.97;;;23.41;57.72
27429;BME280;14881;48.092;11.574;2023-06-14T10:39:27;95088.84;;;24.29;54.33
27429;BME280;14881;48.092;11.574;2023-06-14T10:41:56;95088.63;;;24.63;48.75
27429;BME280;14881;48.092;11.574;2023-06-14T10:44:49;95085.78;;;24.45;50.06
27429;BME280;14881;48.092;11.574;2023-06-14T10:47:24;95097.78;;;24.63;51.10
27429;BME280;14881;48.092;11.574;2023-06-14T10:49:52;95085.91;;;24.74;46.33
27429;BME280;14881;48.092;11.574;2023-06-14T10:52:25;95091.75;;;25.70;50.39
27429;BME280;14881;48.092;11.574;2023-06-14T10:55:18;95088.97;;;25.94;42.23
27429;BME280;14881;48.092;11.574;2023-06-14T10:57:49;95083.66;;;26.78;45.28
27429;BME280;14881;48.092;11.574;2023-06-14T11:00:20;95085.63;;;26.78;40.15
27429;BME280;14881;48.092;11.574;2023-06-14T11:05:42;95084.47;;;26.68;39.97
27429;BME280;14881;48.092;11.574;2023-06-14T11:11:06;95089.03;;;27.21;42.86
27429;BME280;14881;48.092;11.574;2023-06-14T11:13:34;95076.81;;;26.90;39.79
27429;BME280;14881;48.092;11.574;2023-06-14T11:16:03;95085.75;;;25.60;41.45
27429;BME280;14881;48.092;11.574;2023-06-14T11:18:36;95087.91;;;24.80;45.15
27429;BME280;14881;48.092;11.574;2023-06-14T11:21:02;95093.16;;;24.20;48.09
27429;BME280;14881;48.092;11.574;2023-06-14T11:23:29;95092.75;;;24.21;52.56
27429;BME280;14881;48.092;11.574;2023-06-14T11:25:55;95091.44;;;24.67;46.73
27429;BME280;14881;48.092;11.574;2023-06-14T11:28:36;95082.53;;;25.26;44.57
27429;BME280;14881;48.092;11.574;2023-06-14T11:31:03;95088.94;;;25.98;44.14
27429;BME280;14881;48.092;11.574;2023-06-14T11:33:29;95081.81;;;26.15;44.78
27429;BME280;14881;48.092;11.574;2023-06-14T11:35:56;95091.75;;;25.62;43.42
27429;BME280;14881;48.092;11.574;2023-06-14T11:38:22;95072.28;;;25.77;43.01
27429;BME280;14881;48.092;11.574;2023-06-14T11:40:49;95066.25;;;26.39;43.52
27429;BME280;14881;48.092;11.574;2023-06-14T11:43:15;95076.94;;;26.54;42.80
27429;BME280;14881;48.092;11.574;2023-06-14T11:45:43;95073.16;;;27.14;42.30
27429;BME280;14881;48.092;11.574;2023-06-14T11:48:37;95070.63;;;26.36;42.92
27429;BME280;14881;48.092;11.574;2023-06-14T11:51:03;95072.22;;;25.27;43.06
27429;BME280;14881;48.092;11.574;2023-06-14T11:53:29;95080.34;;;24.70;44.40
27429;BME280;14881;48.092;11.574;2023-06-14T11:55:57;95084.56;;;24.43;46.01
27429;BME280;14881;48.092;11.574;2023-06-14T11:58:23;95081.56;;;24.80;42.58
27429;BME280;14881;48.092;11.574;2023-06-14T12:00:52;95077.44;;;25.75;45.66
27429;BME280;14881;48.092;11.574;2023-06-14T12:03:22;95080.19;;;26.28;42.55
27429;BME280;14881;48.092;11.574;2023-06-14T12:05:49;95075.34;;;26.53;39.72
27429;BME280;14881;48.092;11.574;2023-06-14T12:08:16;95075.41;;;26.35;39.02
27429;BME280;14881;48.092;11.574;2023-06-14T12:10:43;95075.00;;;26.37;37.80
27429;BME280;14881;48.092;11.574;2023-06-14T12:13:09;95070.16;;;26.66;41.78
27429;BME280;14881;48.092;11.574;2023-06-14T12:15:36;95069.38;;;26.58;39.08
27429;BME280;14881;48.092;11.574;2023-06-14T12:18:06;95070.56;;;26.54;38.49
27429;BME280;14881;48.092;11.574;2023-06-14T12:20:34;95065.00;;;26.57;38.35
27429;BME280;14881;48.092;11.574;2023-06-14T12:23:03;95067.38;;;26.59;39.97
27429;BME280;14881;48.092;11.574;2023-06-14T12:25:31;95060.66;;;26.39;39.72
27429;BME280;14881;48.092;11.574;2023-06-14T12:28:04;95075.47;;;25.75;38.73
27429;BME280;14881;48.092;11.574;2023-06-14T12:30:31;95073.44;;;25.54;39.66
27429;BME280;14881;48.092;11.574;2023-06-14T12:32:57;95069.06;;;25.57;42.67
27429;BME280;14881;48.092;11.574;2023-06-14T12:35:24;95069.88;;;25.82;41.38
27429;BME280;14881;48.092;11.574;2023-06-14T12:37:51;95066.69;;;25.70;40.77
27429;BME280;14881;48.092;11.574;2023-06-14T12:40:21;95076.59;;;25.42;39.16
27429;BME280;14881;48.092;11.574;2023-06-14T12:42:47;95066.66;;;25.27;39.30
27429;BME280;14881;48.092;11.574;2023-06-14T12:45:14;95074.22;;;25.41;40.24
27429;BME280;14881;48.092;11.574;2023-06-14T12:47:41;95071.47;;;25.73;41.25
27429;BME280;14881;48.092;11.574;2023-06-14T12:50:08;95069.47;;;25.59;37.38
27429;BME280;14881;48.092;11.574;2023-06-14T12:52:38;95067.88;;;25.58;41.64
27429;BME280;14881;48.092;11.574;2023-06-14T12:55:05;95065.50;;;25.67;41.19
27429;BME280;14881;48.092;11.574;2023-06-14T12:57:32;95070.59;;;25.29;38.85
27429;BME280;14881;48.092;11.574;2023-06-14T13:00:00;95076.91;;;25.05;39.18
27429;BME280;14881;48.092;11.574;2023-06-14T13:02:26;95079.19;;;24.85;39.89
27429;BME280;14881;48.092;11.574;2023-06-14T13:04:53;95075.66;;;24.88;41.27